sensor_id;sensor_type;location;lat;lon;timestamp;P1;durP1;ratioP1;P2;durP2;ratioP2
4555;SDS011;2290;48.674;9.018;2023-02-28T00:00:47;2.20;;;1.83;;
4555;SDS011;2290;48.674;9.018;2023-02-28T00:03:15;3.50;;;2.20;;
4555;SDS011;2290;48.674;9.018;2023-02-28T00:05:40;2.00;;;1.80;;
4555;SDS011;2290;48.674;9.018;2023-02-28T00:08:06;4.37;;;2.10;;
4555;SDS011;2290;48.674;9.018;2023-02-28T00:10:32;2.80;;;1.90;;
4555;SDS011;2290;48.674;9.018;2023-02-28T00:13:00;3.70;;;1.73;;
4555;SDS011;2290;48.674;9.018;2023-02-28T00:15:27;1.63;;;1.43;;
4555;SDS011;2290;48.674;9.018;2023-02-28T00:17:53;3.30;;;1.70;;
4555;SDS011;2290;48.674;9.018;2023-02-28T00:20:18;2.90;;;1.63;;
4555;SDS011;2290;48.674;9.018;2023-02-28T00:22:46;2.07;;;1.80;;
4555;SDS011;2290;48.674;9.018;2023-02-28T00:25:14;4.30;;;1.67;;
4555;SDS011;2290;48.674;9.018;2023-02-28T00:27:42;3.80;;;1.63;;
4555;SDS011;2290;48.674;9.018;2023-02-28T00:30:09;4.80;;;1.80;;
4555;SDS011;2290;48.674;9.018;2023-02-28T00:32:38;5.00;;;2.30;;
4555;SDS011;2290;48.674;9.018;2023-02-28T00:35:04;2.30;;;1.73;;
4555;SDS011;2290;48.674;9.018;2023-02-28T00:37:32;2.90;;;2.30;;
4555;SDS011;2290;48.674;9.018;2023-02-28T00:39:57;2.50;;;1.67;;
4555;SDS011;2290;48.674;9.018;2023-02-28T00:42:23;2.33;;;1.80;;
4555;SDS011;2290;48.674;9.018;2023-02-28T00:44:57;2.73;;;2.00;;
4555;SDS011;2290;48.674;9.018;2023-02-28T00:47:23;2.77;;;1.80;;
4555;SDS011;2290;48.674;9.018;2023-02-28T00:49:48;2.23;;;1.60;;
4555;SDS011;2290;48.674;9.018;2023-02-28T00:52:14;3.60;;;1.60;;
4555;SDS011;2290;48.674;9.018;2023-02-28T00:54:41;3.93;;;1.90;;
4555;SDS011;2290;48.674;9.018;2023-02-28T00:57:07;1.93;;;1.50;;
4555;SDS011;2290;48.674;9.018;2023-02-28T00:59:32;2.47;;;1.63;;
4555;SDS011;2290;48.674;9.018;2023-02-28T01:01:58;3.07;;;1.83;;
4555;SDS011;2290;48.674;9.018;2023-02-28T01:04:23;3.50;;;2.30;;
4555;SDS011;2290;48.674;9.018;2023-02-28T01:06:49;3.60;;;1.80;;
4555;SDS011;2290;48.674;9.018;2023-02-28T01:09:15;2.83;;;1.70;;
4555;SDS011;2290;48.674;9.018;2023-02-28T01:11:43;2.40;;;2.00;;
4555;SDS011;2290;48.674;9.018;2023-02-28T01:14:14;1.90;;;1.67;;
4555;SDS011;2290;48.674;9.018;2023-02-28T01:16:41;2.70;;;2.00;;
4555;SDS011;2290;48.674;9.018;2023-02-28T01:19:08;3.00;;;1.70;;
4555;SDS011;2290;48.674;9.018;2023-02-28T01:21:34;2.53;;;1.97;;
4555;SDS011;2290;48.674;9.018;2023-02-28T01:24:00;2.37;;;1.60;;
4555;SDS011;2290;48.674;9.018;2023-02-28T01:26:31;4.60;;;2.20;;
4555;SDS011;2290;48.674;9.018;2023-02-28T01:28:56;1.67;;;1.57;;
4555;SDS011;2290;48.674;9.018;2023-02-28T01:31:23;2.80;;;2.00;;
4555;SDS011;2290;48.674;9.018;2023-02-28T01:33:49;2.80;;;1.90;;
4555;SDS011;2290;48.674;9.018;2023-02-28T01:36:20;10.83;;;2.03;;
4555;SDS011;2290;48.674;9.018;2023-02-28T01:38:48;2.40;;;1.80;;
4555;SDS011;2290;48.674;9.018;2023-02-28T01:41:18;2.80;;;2.03;;
4555;SDS011;2290;48.674;9.018;2023-02-28T01:46:20;3.10;;;2.00;;
4555;SDS011;2290;48.674;9.018;2023-02-28T01:49:29;2.73;;;1.77;;
4555;SDS011;2290;48.674;9.018;2023-02-28T01:51:51;2.17;;;1.80;;
4555;SDS011;2290;48.674;9.018;2023-02-28T01:54:22;3.03;;;1.83;;
4555;SDS011;2290;48.674;9.018;2023-02-28T01:56:56;2.27;;;2.07;;
4555;SDS011;2290;48.674;9.018;2023-02-28T01:59:31;4.63;;;1.63;;
4555;SDS011;2290;48.674;9.018;2023-02-28T02:02:06;2.43;;;1.93;;
4555;SDS011;2290;48.674;9.018;2023-02-28T02:04:34;3.10;;;2.03;;
4555;SDS011;2290;48.674;9.018;2023-02-28T02:07:07;4.60;;;2.73;;
4555;SDS011;2290;48.674;9.018;2023-02-28T02:09:35;4.50;;;2.27;;
4555;SDS011;2290;48.674;9.018;2023-02-28T02:12:05;3.60;;;1.90;;
4555;SDS011;2290;48.674;9.018;2023-02-28T02:14:58;3.13;;;1.87;;
4555;SDS011;2290;48.674;9.018;2023-02-28T02:17:49;4.13;;;2.20;;
4555;SDS011;2290;48.674;9.018;2023-02-28T02:32:19;2.07;;;1.73;;
4555;SDS011;2290;48.674;9.018;2023-02-28T02:35:12;3.37;;;1.80;;
4555;SDS011;2290;48.674;9.018;2023-02-28T02:40:56;2.70;;;2.17;;
4555;SDS011;2290;48.674;9.018;2023-02-28T02:43:32;3.53;;;2.10;;
4555;SDS011;2290;48.674;9.018;2023-02-28T02:46:04;2.87;;;2.20;;
4555;SDS011;2290;48.674;9.018;2023-02-28T02:48:35;3.40;;;2.10;;
4555;SDS011;2290;48.674;9.018;2023-02-28T02:51:04;3.03;;;2.33;;
4555;SDS011;2290;48.674;9.018;2023-02-28T02:53:55;5.10;;;2.40;;
4555;SDS011;2290;48.674;9.018;2023-02-28T02:56:26;4.17;;;2.20;;
4555;SDS011;2290;48.674;9.018;2023-02-28T02:58:54;3.40;;;2.33;;
4555;SDS011;2290;48.674;9.018;2023-02-28T03:01:26;2.50;;;1.93;;
4555;SDS011;2290;48.674;9.018;2023-02-28T03:03:59;3.53;;;2.40;;
4555;SDS011;2290;48.674;9.018;2023-02-28T03:06:27;3.30;;;2.53;;
4555;SDS011;2290;48.674;9.018;2023-02-28T03:08:54;3.20;;;1.93;;
4555;SDS011;2290;48.674;9.018;2023-02-28T03:11:20;4.83;;;2.40;;
4555;SDS011;2290;48.674;9.018;2023-02-28T03:25:29;3.67;;;1.97;;
4555;SDS011;2290;48.674;9.018;2023-02-28T03:30:58;3.70;;;2.50;;
4555;SDS011;2290;48.674;9.018;2023-02-28T03:33:56;3.23;;;1.80;;
4555;SDS011;2290;48.674;9.018;2023-02-28T03:36:27;2.90;;;2.17;;
4555;SDS011;2290;48.674;9.018;2023-02-28T03:38:57;6.63;;;2.20;;
4555;SDS011;2290;48.674;9.018;2023-02-28T03:42:03;3.43;;;2.50;;
4555;SDS011;2290;48.674;9.018;2023-02-28T03:44:41;3.00;;;2.10;;
4555;SDS011;2290;48.674;9.018;2023-02-28T03:47:11;4.20;;;2.50;;
4555;SDS011;2290;48.674;9.018;2023-02-28T03:49:44;4.90;;;2.20;;
4555;SDS011;2290;48.674;9.018;2023-02-28T03:52:17;3.10;;;2.53;;
4555;SDS011;2290;48.674;9.018;2023-02-28T03:54:50;2.47;;;2.23;;
4555;SDS011;2290;48.674;9.018;2023-02-28T03:57:36;4.03;;;2.50;;
4555;SDS011;2290;48.674;9.018;2023-02-28T04:00:33;6.70;;;2.47;;
4555;SDS011;2290;48.674;9.018;2023-02-28T04:03:02;3.70;;;2.43;;
4555;SDS011;2290;48.674;9.018;2023-02-28T04:05:29;3.37;;;3.03;;
4555;SDS011;2290;48.674;9.018;2023-02-28T04:08:03;5.67;;;2.30;;
4555;SDS011;2290;48.674;9.018;2023-02-28T04:10:32;3.53;;;2.50;;
4555;SDS011;2290;48.674;9.018;2023-02-28T04:13:00;4.97;;;2.00;;
4555;SDS011;2290;48.674;9.018;2023-02-28T04:15:26;8.37;;;2.83;;
4555;SDS011;2290;48.674;9.018;2023-02-28T04:17:52;4.70;;;2.40;;
4555;SDS011;2290;48.674;9.018;2023-02-28T04:20:20;6.47;;;3.10;;
4555;SDS011;2290;48.674;9.018;2023-02-28T04:22:46;5.30;;;2.63;;
4555;SDS011;2290;48.674;9.018;2023-02-28T04:25:13;2.63;;;2.43;;
4555;SDS011;2290;48.674;9.018;2023-02-28T04:27:40;8.93;;;2.77;;
4555;SDS011;2290;48.674;9.018;2023-02-28T04:30:06;4.10;;;2.53;;
4555;SDS011;2290;48.674;9.018;2023-02-28T04:32:33;3.17;;;2.60;;
4555;SDS011;2290;48.674;9.018;2023-02-28T04:34:58;3.03;;;2.30;;
4555;SDS011;2290;48.674;9.018;2023-02-28T04:37:24;2.90;;;1.97;;
4555;SDS011;2290;48.674;9.018;2023-02-28T04:39:53;5.40;;;2.50;;
4555;SDS011;2290;48.674;9.018;2023-02-28T04:42:19;5.40;;;2.87;;
4555;SDS011;2290;48.674;9.018;2023-02-28T04:44:45;3.70;;;2.50;;
4555;SDS011;2290;48.674;9.018;2023-02-28T04:47:12;7.00;;;3.10;;
4555;SDS011;2290;48.674;9.018;2023-02-28T04:49:38;2.87;;;2.30;;
4555;SDS011;2290;48.674;9.018;2023-02-28T04:52:04;4.13;;;2.30;;
4555;SDS011;2290;48.674;9.018;2023-02-28T04:54:29;3.17;;;2.53;;
4555;SDS011;2290;48.674;9.018;2023-02-28T04:56:55;4.60;;;2.60;;
4555;SDS011;2290;48.674;9.018;2023-02-28T04:59:21;3.23;;;2.37;;
4555;SDS011;2290;48.674;9.018;2023-02-28T05:01:48;3.17;;;2.33;;
4555;SDS011;2290;48.674;9.018;2023-02-28T05:04:16;5.23;;;2.97;;
4555;SDS011;2290;48.674;9.018;2023-02-28T05:06:43;6.00;;;2.40;;
4555;SDS011;2290;48.674;9.018;2023-02-28T05:09:08;8.27;;;2.70;;
4555;SDS011;2290;48.674;9.018;2023-02-28T05:11:37;4.10;;;2.43;;
4555;SDS011;2290;48.674;9.018;2023-02-28T05:14:05;4.43;;;2.70;;
4555;SDS011;2290;48.674;9.018;2023-02-28T05:16:41;5.33;;;3.10;;
4555;SDS011;2290;48.674;9.018;2023-02-28T05:19:07;4.30;;;3.50;;
4555;SDS011;2290;48.674;9.018;2023-02-28T05:21:33;2.63;;;2.27;;
4555;SDS011;2290;48.674;9.018;2023-02-28T05:24:03;4.50;;;3.30;;
4555;SDS011;2290;48.674;9.018;2023-02-28T05:26:44;6.37;;;2.77;;
4555;SDS011;2290;48.674;9.018;2023-02-28T05:29:10;8.13;;;2.80;;
4555;SDS011;2290;48.674;9.018;2023-02-28T05:31:35;4.80;;;3.20;;
4555;SDS011;2290;48.674;9.018;2023-02-28T05:34:01;2.70;;;2.17;;
4555;SDS011;2290;48.674;9.018;2023-02-28T05:36:29;4.23;;;2.67;;
4555;SDS011;2290;48.674;9.018;2023-02-28T05:38:55;4.80;;;2.60;;
4555;SDS011;2290;48.674;9.018;2023-02-28T05:41:20;3.47;;;2.80;;
4555;SDS011;2290;48.674;9.018;2023-02-28T05:43:46;7.53;;;2.77;;
4555;SDS011;2290;48.674;9.018;2023-02-28T05:46:12;5.37;;;2.80;;
4555;SDS011;2290;48.674;9.018;2023-02-28T05:48:39;7.00;;;3.30;;
4555;SDS011;2290;48.674;9.018;2023-02-28T05:51:06;5.70;;;3.07;;
4555;SDS011;2290;48.674;9.018;2023-02-28T05:53:33;4.20;;;2.90;;
4555;SDS011;2290;48.674;9.018;2023-02-28T05:55:59;3.13;;;2.73;;
4555;SDS011;2290;48.674;9.018;2023-02-28T05:58:25;9.07;;;3.43;;
4555;SDS011;2290;48.674;9.018;2023-02-28T06:00:55;4.57;;;2.70;;
4555;SDS011;2290;48.674;9.018;2023-02-28T06:03:26;6.73;;;3.33;;
4555;SDS011;2290;48.674;9.018;2023-02-28T06:05:52;5.27;;;3.30;;
4555;SDS011;2290;48.674;9.018;2023-02-28T06:08:21;3.73;;;2.50;;
4555;SDS011;2290;48.674;9.018;2023-02-28T06:10:46;4.23;;;2.40;;
4555;SDS011;2290;48.674;9.018;2023-02-28T06:13:13;6.23;;;3.40;;
4555;SDS011;2290;48.674;9.018;2023-02-28T06:15:40;6.10;;;3.00;;
4555;SDS011;2290;48.674;9.018;2023-02-28T06:42:05;3.30;;;2.50;;
4555;SDS011;2290;48.674;9.018;2023-02-28T07:09:31;6.07;;;3.60;;
4555;SDS011;2290;48.674;9.018;2023-02-28T07:16:56;5.27;;;3.00;;
4555;SDS011;2290;48.674;9.018;2023-02-28T07:19:22;5.03;;;3.50;;
4555;SDS011;2290;48.674;9.018;2023-02-28T07:21:47;4.37;;;3.47;;
4555;SDS011;2290;48.674;9.018;2023-02-28T07:24:13;4.23;;;3.20;;
4555;SDS011;2290;48.674;9.018;2023-02-28T07:26:40;6.30;;;3.67;;
4555;SDS011;2290;48.674;9.018;2023-02-28T07:29:06;11.00;;;3.33;;
4555;SDS011;2290;48.674;9.018;2023-02-28T07:31:32;4.63;;;3.47;;
4555;SDS011;2290;48.674;9.018;2023-02-28T07:33:57;6.17;;;3.27;;
4555;SDS011;2290;48.674;9.018;2023-02-28T07:36:26;6.03;;;3.87;;
4555;SDS011;2290;48.674;9.018;2023-02-28T07:39:01;3.93;;;2.90;;
4555;SDS011;2290;48.674;9.018;2023-02-28T07:41:54;10.00;;;4.30;;
4555;SDS011;2290;48.674;9.018;2023-02-28T07:44:40;5.40;;;3.20;;
4555;SDS011;2290;48.674;9.018;2023-02-28T07:47:06;6.97;;;3.50;;
4555;SDS011;2290;48.674;9.018;2023-02-28T07:49:33;7.37;;;4.17;;
4555;SDS011;2290;48.674;9.018;2023-02-28T08:01:50;9.43;;;3.90;;
4555;SDS011;2290;48.674;9.018;2023-02-28T08:08:01;10.13;;;4.13;;
4555;SDS011;2290;48.674;9.018;2023-02-28T08:11:25;4.93;;;3.40;;
4555;SDS011;2290;48.674;9.018;2023-02-28T08:14:38;7.90;;;3.77;;
4555;SDS011;2290;48.674;9.018;2023-02-28T08:17:37;5.87;;;3.30;;
4555;SDS011;2290;48.674;9.018;2023-02-28T08:20:20;7.70;;;3.40;;
4555;SDS011;2290;48.674;9.018;2023-02-28T08:23:23;4.90;;;3.10;;
4555;SDS011;2290;48.674;9.018;2023-02-28T08:25:54;5.53;;;3.27;;
4555;SDS011;2290;48.674;9.018;2023-02-28T08:28:20;10.57;;;4.03;;
4555;SDS011;2290;48.674;9.018;2023-02-28T08:30:47;6.47;;;4.20;;
4555;SDS011;2290;48.674;9.018;2023-02-28T08:33:16;8.37;;;3.90;;
4555;SDS011;2290;48.674;9.018;2023-02-28T08:35:41;5.50;;;3.70;;
4555;SDS011;2290;48.674;9.018;2023-02-28T08:38:07;12.03;;;4.30;;
4555;SDS011;2290;48.674;9.018;2023-02-28T08:40:33;10.13;;;3.63;;
4555;SDS011;2290;48.674;9.018;2023-02-28T08:42:58;7.23;;;3.57;;
4555;SDS011;2290;48.674;9.018;2023-02-28T08:45:24;8.03;;;4.37;;
4555;SDS011;2290;48.674;9.018;2023-02-28T08:51:31;4.80;;;3.30;;
4555;SDS011;2290;48.674;9.018;2023-02-28T08:57:28;6.30;;;3.67;;
4555;SDS011;2290;48.674;9.018;2023-02-28T09:00:13;9.83;;;3.90;;
4555;SDS011;2290;48.674;9.018;2023-02-28T09:02:39;11.10;;;3.57;;
4555;SDS011;2290;48.674;9.018;2023-02-28T09:15:31;7.23;;;4.43;;
4555;SDS011;2290;48.674;9.018;2023-02-28T09:28:40;6.53;;;4.07;;
4555;SDS011;2290;48.674;9.018;2023-02-28T09:31:12;7.17;;;4.27;;
4555;SDS011;2290;48.674;9.018;2023-02-28T09:33:40;6.93;;;4.20;;
4555;SDS011;2290;48.674;9.018;2023-02-28T09:36:10;8.30;;;4.07;;
4555;SDS011;2290;48.674;9.018;2023-02-28T09:38:38;6.33;;;3.87;;
4555;SDS011;2290;48.674;9.018;2023-02-28T09:41:12;6.97;;;3.83;;
4555;SDS011;2290;48.674;9.018;2023-02-28T09:43:40;8.00;;;4.20;;
4555;SDS011;2290;48.674;9.018;2023-02-28T09:46:18;9.47;;;4.40;;
4555;SDS011;2290;48.674;9.018;2023-02-28T09:48:52;6.20;;;3.93;;
4555;SDS011;2290;48.674;9.018;2023-02-28T09:51:25;7.70;;;4.17;;
4555;SDS011;2290;48.674;9.018;2023-02-28T09:53:58;6.97;;;4.20;;
4555;SDS011;2290;48.674;9.018;2023-02-28T09:56:36;7.70;;;4.07;;
4555;SDS011;2290;48.674;9.018;2023-02-28T10:04:16;10.87;;;4.60;;
4555;SDS011;2290;48.674;9.018;2023-02-28T10:06:50;8.03;;;4.80;;
4555;SDS011;2290;48.674;9.018;2023-02-28T10:09:22;6.90;;;4.10;;
4555;SDS011;2290;48.674;9.018;2023-02-28T10:12:10;7.30;;;4.20;;
4555;SDS011;2290;48.674;9.018;2023-02-28T10:14:40;7.67;;;4.70;;
4555;SDS011;2290;48.674;9.018;2023-02-28T10:17:14;7.50;;;3.60;;
4555;SDS011;2290;48.674;9.018;2023-02-28T10:22:37;9.27;;;4.17;;
4555;SDS011;2290;48.674;9.018;2023-02-28T10:25:26;7.87;;;4.40;;
4555;SDS011;2290;48.674;9.018;2023-02-28T10:27:53;7.60;;;3.90;;
4555;SDS011;2290;48.674;9.018;2023-02-28T10:30:42;6.73;;;3.87;;
4555;SDS011;2290;48.674;9.018;2023-02-28T10:35:49;7.23;;;4.30;;
4555;SDS011;2290;48.674;9.018;2023-02-28T10:38:22;10.83;;;4.57;;
4555;SDS011;2290;48.674;9.018;2023-02-28T10:41:14;7.37;;;3.53;;
4555;SDS011;2290;48.674;9.018;2023-02-28T10:46:49;6.60;;;4.33;;
4555;SDS011;2290;48.674;9.018;2023-02-28T10:51:56;8.33;;;4.50;;
4555;SDS011;2290;48.674;9.018;2023-02-28T10:54:29;7.00;;;4.43;;
4555;SDS011;2290;48.674;9.018;2023-02-28T10:57:07;8.97;;;4.40;;
4555;SDS011;2290;48.674;9.018;2023-02-28T10:59:44;8.90;;;5.50;;
4555;SDS011;2290;48.674;9.018;2023-02-28T11:02:28;10.83;;;5.00;;
4555;SDS011;2290;48.674;9.018;2023-02-28T11:05:25;8.30;;;5.00;;
4555;SDS011;2290;48.674;9.018;2023-02-28T11:08:10;10.13;;;4.80;;
4555;SDS011;2290;48.674;9.018;2023-02-28T11:10:38;7.67;;;4.50;;
4555;SDS011;2290;48.674;9.018;2023-02-28T11:13:04;15.63;;;4.90;;
4555;SDS011;2290;48.674;9.018;2023-02-28T11:15:31;8.30;;;4.30;;
4555;SDS011;2290;48.674;9.018;2023-02-28T11:20:26;9.30;;;4.33;;
4555;SDS011;2290;48.674;9.018;2023-02-28T11:22:56;11.40;;;4.87;;
4555;SDS011;2290;48.674;9.018;2023-02-28T11:25:24;8.20;;;5.07;;
4555;SDS011;2290;48.674;9.018;2023-02-28T11:27:59;6.13;;;4.27;;
4555;SDS011;2290;48.674;9.018;2023-02-28T11:33:01;10.73;;;4.60;;
4555;SDS011;2290;48.674;9.018;2023-02-28T11:35:44;8.30;;;4.90;;
4555;SDS011;2290;48.674;9.018;2023-02-28T11:38:12;9.50;;;5.13;;
4555;SDS011;2290;48.674;9.018;2023-02-28T11:46:50;6.90;;;4.30;;
4555;SDS011;2290;48.674;9.018;2023-02-28T11:49:28;8.43;;;4.50;;
4555;SDS011;2290;48.674;9.018;2023-02-28T11:57:56;9.87;;;5.17;;
4555;SDS011;2290;48.674;9.018;2023-02-28T12:01:09;9.23;;;4.50;;
4555;SDS011;2290;48.674;9.018;2023-02-28T12:09:23;9.07;;;4.97;;
4555;SDS011;2290;48.674;9.018;2023-02-28T12:12:27;9.53;;;5.10;;
4555;SDS011;2290;48.674;9.018;2023-02-28T12:17:58;10.97;;;5.47;;
4555;SDS011;2290;48.674;9.018;2023-02-28T12:20:36;8.10;;;5.20;;
4555;SDS011;2290;48.674;9.018;2023-02-28T12:23:52;10.90;;;5.30;;
4555;SDS011;2290;48.674;9.018;2023-02-28T12:31:45;10.57;;;5.23;;
4555;SDS011;2290;48.674;9.018;2023-02-28T12:37:34;9.43;;;5.17;;
4555;SDS011;2290;48.674;9.018;2023-02-28T12:40:16;10.10;;;5.40;;
4555;SDS011;2290;48.674;9.018;2023-02-28T12:42:49;9.27;;;5.77;;
4555;SDS011;2290;48.674;9.018;2023-02-28T12:47:56;13.60;;;6.00;;
4555;SDS011;2290;48.674;9.018;2023-02-28T12:50:25;9.90;;;5.67;;
4555;SDS011;2290;48.674;9.018;2023-02-28T12:52:54;12.80;;;5.33;;
4555;SDS011;2290;48.674;9.018;2023-02-28T12:55:42;7.70;;;4.60;;
4555;SDS011;2290;48.674;9.018;2023-02-28T12:58:15;8.70;;;4.97;;
4555;SDS011;2290;48.674;9.018;2023-02-28T13:07:13;8.90;;;5.50;;
4555;SDS011;2290;48.674;9.018;2023-02-28T13:09:59;10.20;;;4.87;;
4555;SDS011;2290;48.674;9.018;2023-02-28T13:12:27;10.60;;;5.43;;
4555;SDS011;2290;48.674;9.018;2023-02-28T13:15:39;12.93;;;5.33;;
4555;SDS011;2290;48.674;9.018;2023-02-28T13:17:51;9.07;;;5.10;;
4555;SDS011;2290;48.674;9.018;2023-02-28T13:20:20;7.67;;;5.10;;
4555;SDS011;2290;48.674;9.018;2023-02-28T13:23:01;9.73;;;5.10;;
4555;SDS011;2290;48.674;9.018;2023-02-28T13:27:59;9.80;;;6.40;;
4555;SDS011;2290;48.674;9.018;2023-02-28T13:38:44;9.40;;;5.50;;
4555;SDS011;2290;48.674;9.018;2023-02-28T13:44:20;8.73;;;5.13;;
4555;SDS011;2290;48.674;9.018;2023-02-28T14:07:59;8.80;;;5.30;;
4555;SDS011;2290;48.674;9.018;2023-02-28T14:10:26;9.00;;;5.40;;
4555;SDS011;2290;48.674;9.018;2023-02-28T14:16:05;10.17;;;7.10;;
4555;SDS011;2290;48.674;9.018;2023-02-28T14:18:35;11.40;;;5.90;;
4555;SDS011;2290;48.674;9.018;2023-02-28T14:27:24;8.23;;;5.80;;
4555;SDS011;2290;48.674;9.018;2023-02-28T14:36:04;8.97;;;6.07;;
4555;SDS011;2290;48.674;9.018;2023-02-28T14:39:40;9.70;;;5.77;;
4555;SDS011;2290;48.674;9.018;2023-02-28T14:41:41;9.77;;;6.33;;
4555;SDS011;2290;48.674;9.018;2023-02-28T14:44:15;9.70;;;5.70;;
4555;SDS011;2290;48.674;9.018;2023-02-28T14:46:48;8.90;;;5.70;;
4555;SDS011;2290;48.674;9.018;2023-02-28T14:49:20;11.77;;;6.20;;
4555;SDS011;2290;48.674;9.018;2023-02-28T14:51:49;9.57;;;5.53;;
4555;SDS011;2290;48.674;9.018;2023-02-28T14:54:34;12.63;;;7.20;;
4555;SDS011;2290;48.674;9.018;2023-02-28T14:57:00;9.33;;;5.77;;
4555;SDS011;2290;48.674;9.018;2023-02-28T14:59:30;9.30;;;5.30;;
4555;SDS011;2290;48.674;9.018;2023-02-28T15:04:58;9.70;;;5.87;;
4555;SDS011;2290;48.674;9.018;2023-02-28T15:07:27;8.50;;;5.30;;
4555;SDS011;2290;48.674;9.018;2023-02-28T15:12:41;8.10;;;5.53;;
4555;SDS011;2290;48.674;9.018;2023-02-28T15:15:14;8.90;;;6.27;;
4555;SDS011;2290;48.674;9.018;2023-02-28T15:17:40;10.80;;;5.83;;
4555;SDS011;2290;48.674;9.018;2023-02-28T15:20:12;10.63;;;6.70;;
4555;SDS011;2290;48.674;9.018;2023-02-28T15:22:41;10.50;;;6.30;;
4555;SDS011;2290;48.674;9.018;2023-02-28T15:25:07;8.20;;;5.87;;
4555;SDS011;2290;48.674;9.018;2023-02-28T15:27:44;8.87;;;6.00;;
4555;SDS011;2290;48.674;9.018;2023-02-28T15:30:15;9.47;;;5.70;;
4555;SDS011;2290;48.674;9.018;2023-02-28T15:33:06;9.87;;;6.20;;
4555;SDS011;2290;48.674;9.018;2023-02-28T15:35:51;9.00;;;5.87;;
4555;SDS011;2290;48.674;9.018;2023-02-28T15:38:28;11.00;;;6.40;;
4555;SDS011;2290;48.674;9.018;2023-02-28T15:40:56;10.43;;;6.10;;
4555;SDS011;2290;48.674;9.018;2023-02-28T15:43:30;11.30;;;5.90;;
4555;SDS011;2290;48.674;9.018;2023-02-28T15:48:30;9.33;;;5.67;;
4555;SDS011;2290;48.674;9.018;2023-02-28T15:51:08;8.83;;;5.37;;
4555;SDS011;2290;48.674;9.018;2023-02-28T15:53:54;7.90;;;5.00;;
4555;SDS011;2290;48.674;9.018;2023-02-28T15:56:27;9.80;;;6.00;;
4555;SDS011;2290;48.674;9.018;2023-02-28T15:59:00;9.80;;;5.70;;
4555;SDS011;2290;48.674;9.018;2023-02-28T16:01:28;8.67;;;5.50;;
4555;SDS011;2290;48.674;9.018;2023-02-28T16:03:58;8.43;;;5.47;;
4555;SDS011;2290;48.674;9.018;2023-02-28T16:07:20;7.50;;;5.40;;
4555;SDS011;2290;48.674;9.018;2023-02-28T16:09:30;8.30;;;5.43;;
4555;SDS011;2290;48.674;9.018;2023-02-28T16:11:56;10.00;;;6.23;;
4555;SDS011;2290;48.674;9.018;2023-02-28T16:14:28;8.43;;;5.47;;
4555;SDS011;2290;48.674;9.018;2023-02-28T16:17:04;12.77;;;8.20;;
4555;SDS011;2290;48.674;9.018;2023-02-28T16:19:34;9.07;;;5.47;;
4555;SDS011;2290;48.674;9.018;2023-02-28T16:22:01;15.10;;;6.00;;
4555;SDS011;2290;48.674;9.018;2023-02-28T16:24:27;13.40;;;6.53;;
4555;SDS011;2290;48.674;9.018;2023-02-28T16:26:53;8.87;;;5.30;;
4555;SDS011;2290;48.674;9.018;2023-02-28T16:29:27;8.97;;;6.10;;
4555;SDS011;2290;48.674;9.018;2023-02-28T16:31:57;9.97;;;5.80;;
4555;SDS011;2290;48.674;9.018;2023-02-28T16:34:23;8.93;;;5.23;;
4555;SDS011;2290;48.674;9.018;2023-02-28T16:36:50;10.60;;;5.30;;
4555;SDS011;2290;48.674;9.018;2023-02-28T16:39:19;11.67;;;5.80;;
4555;SDS011;2290;48.674;9.018;2023-02-28T16:41:48;10.67;;;5.53;;
4555;SDS011;2290;48.674;9.018;2023-02-28T16:47:02;9.87;;;5.67;;
4555;SDS011;2290;48.674;9.018;2023-02-28T16:49:30;8.10;;;5.50;;
4555;SDS011;2290;48.674;9.018;2023-02-28T16:51:57;9.47;;;5.67;;
4555;SDS011;2290;48.674;9.018;2023-02-28T16:54:24;9.93;;;5.77;;
4555;SDS011;2290;48.674;9.018;2023-02-28T16:56:50;10.40;;;5.37;;
4555;SDS011;2290;48.674;9.018;2023-02-28T16:59:18;9.77;;;5.60;;
4555;SDS011;2290;48.674;9.018;2023-02-28T17:01:47;11.93;;;6.03;;
4555;SDS011;2290;48.674;9.018;2023-02-28T17:04:15;9.50;;;5.47;;
4555;SDS011;2290;48.674;9.018;2023-02-28T17:06:41;11.90;;;6.50;;
4555;SDS011;2290;48.674;9.018;2023-02-28T17:09:19;10.63;;;5.70;;
4555;SDS011;2290;48.674;9.018;2023-02-28T17:11:46;8.50;;;5.07;;
4555;SDS011;2290;48.674;9.018;2023-02-28T17:14:13;11.70;;;5.57;;
4555;SDS011;2290;48.674;9.018;2023-02-28T17:16:41;12.43;;;5.90;;
4555;SDS011;2290;48.674;9.018;2023-02-28T17:19:14;7.80;;;4.80;;
4555;SDS011;2290;48.674;9.018;2023-02-28T17:21:42;11.43;;;5.90;;
4555;SDS011;2290;48.674;9.018;2023-02-28T17:24:08;12.27;;;5.50;;
4555;SDS011;2290;48.674;9.018;2023-02-28T17:26:36;10.13;;;5.73;;
4555;SDS011;2290;48.674;9.018;2023-02-28T17:29:05;10.90;;;5.30;;
4555;SDS011;2290;48.674;9.018;2023-02-28T17:31:36;10.67;;;5.47;;
4555;SDS011;2290;48.674;9.018;2023-02-28T17:34:03;8.03;;;5.80;;
4555;SDS011;2290;48.674;9.018;2023-02-28T17:36:29;10.07;;;5.63;;
4555;SDS011;2290;48.674;9.018;2023-02-28T17:38:55;11.30;;;6.13;;
4555;SDS011;2290;48.674;9.018;2023-02-28T17:41:22;8.73;;;5.30;;
4555;SDS011;2290;48.674;9.018;2023-02-28T17:43:48;10.97;;;5.60;;
4555;SDS011;2290;48.674;9.018;2023-02-28T17:46:19;12.13;;;5.90;;
4555;SDS011;2290;48.674;9.018;2023-02-28T17:48:54;11.37;;;5.83;;
4555;SDS011;2290;48.674;9.018;2023-02-28T17:51:29;9.90;;;5.80;;
4555;SDS011;2290;48.674;9.018;2023-02-28T17:53:55;11.17;;;6.37;;
4555;SDS011;2290;48.674;9.018;2023-02-28T17:56:22;9.70;;;5.37;;
4555;SDS011;2290;48.674;9.018;2023-02-28T17:58:50;13.10;;;5.70;;
4555;SDS011;2290;48.674;9.018;2023-02-28T18:01:17;11.53;;;5.80;;
4555;SDS011;2290;48.674;9.018;2023-02-28T18:03:45;8.00;;;4.87;;
4555;SDS011;2290;48.674;9.018;2023-02-28T18:06:16;10.33;;;5.70;;
4555;SDS011;2290;48.674;9.018;2023-02-28T18:08:49;10.80;;;5.43;;
4555;SDS011;2290;48.674;9.018;2023-02-28T18:11:19;10.20;;;5.43;;
4555;SDS011;2290;48.674;9.018;2023-02-28T18:13:50;13.33;;;5.50;;
4555;SDS011;2290;48.674;9.018;2023-02-28T18:16:18;12.80;;;5.80;;
4555;SDS011;2290;48.674;9.018;2023-02-28T18:18:47;7.93;;;4.80;;
4555;SDS011;2290;48.674;9.018;2023-02-28T18:21:18;8.37;;;5.60;;
4555;SDS011;2290;48.674;9.018;2023-02-28T18:23:47;12.03;;;6.20;;
4555;SDS011;2290;48.674;9.018;2023-02-28T18:26:14;10.77;;;5.60;;
4555;SDS011;2290;48.674;9.018;2023-02-28T18:28:40;12.13;;;5.67;;
4555;SDS011;2290;48.674;9.018;2023-02-28T18:31:09;7.17;;;4.90;;
4555;SDS011;2290;48.674;9.018;2023-02-28T18:33:37;9.30;;;4.90;;
4555;SDS011;2290;48.674;9.018;2023-02-28T18:36:03;10.30;;;5.67;;
4555;SDS011;2290;48.674;9.018;2023-02-28T18:38:29;10.43;;;5.63;;
4555;SDS011;2290;48.674;9.018;2023-02-28T18:40:55;10.73;;;5.87;;
4555;SDS011;2290;48.674;9.018;2023-02-28T18:43:24;11.70;;;5.40;;
4555;SDS011;2290;48.674;9.018;2023-02-28T18:45:50;11.00;;;6.00;;
4555;SDS011;2290;48.674;9.018;2023-02-28T18:48:16;8.70;;;5.40;;
4555;SDS011;2290;48.674;9.018;2023-02-28T18:50:47;10.50;;;5.67;;
4555;SDS011;2290;48.674;9.018;2023-02-28T18:53:16;13.60;;;5.73;;
4555;SDS011;2290;48.674;9.018;2023-02-28T18:55:45;8.77;;;4.90;;
4555;SDS011;2290;48.674;9.018;2023-02-28T18:58:11;12.73;;;6.10;;
4555;SDS011;2290;48.674;9.018;2023-02-28T19:00:37;12.30;;;5.87;;
4555;SDS011;2290;48.674;9.018;2023-02-28T19:03:03;8.80;;;5.57;;
4555;SDS011;2290;48.674;9.018;2023-02-28T19:05:28;8.83;;;5.40;;
4555;SDS011;2290;48.674;9.018;2023-02-28T19:07:58;7.00;;;5.00;;
4555;SDS011;2290;48.674;9.018;2023-02-28T19:10:31;9.70;;;5.43;;
4555;SDS011;2290;48.674;9.018;2023-02-28T19:12:57;12.20;;;6.10;;
4555;SDS011;2290;48.674;9.018;2023-02-28T19:15:22;8.40;;;5.10;;
4555;SDS011;2290;48.674;9.018;2023-02-28T19:17:48;9.43;;;5.67;;
4555;SDS011;2290;48.674;9.018;2023-02-28T19:20:17;10.50;;;5.20;;
4555;SDS011;2290;48.674;9.018;2023-02-28T19:22:43;7.57;;;5.30;;
4555;SDS011;2290;48.674;9.018;2023-02-28T19:25:09;11.10;;;5.90;;
4555;SDS011;2290;48.674;9.018;2023-02-28T19:27:38;13.37;;;6.40;;
4555;SDS011;2290;48.674;9.018;2023-02-28T19:30:03;11.97;;;6.60;;
4555;SDS011;2290;48.674;9.018;2023-02-28T19:32:30;11.60;;;5.80;;
4555;SDS011;2290;48.674;9.018;2023-02-28T19:34:56;11.43;;;5.80;;
4555;SDS011;2290;48.674;9.018;2023-02-28T19:37:21;7.67;;;4.70;;
4555;SDS011;2290;48.674;9.018;2023-02-28T19:39:47;13.27;;;6.70;;
4555;SDS011;2290;48.674;9.018;2023-02-28T19:42:17;11.13;;;6.40;;
4555;SDS011;2290;48.674;9.018;2023-02-28T19:44:43;10.50;;;5.57;;
4555;SDS011;2290;48.674;9.018;2023-02-28T19:47:09;12.20;;;7.23;;